Time;durP1;ratioP1;P1;durP2;ratioP2;P2;SDS_P1;SDS_P2;PMS_P1;PMS_P2;Temp;Humidity;BMP_temperature;BMP_pressure;BME280_temperature;BME280_humidity;BME280_pressure;Samples;Min_cycle;Max_cycle;Signal;HPM_P1;HPM_P2
2024/04/14 00:00:23;;;;;;;10.80;5.07;;;;;;;10.10;100.00;98268.53;6802220;26;20234;-56
2024/04/14 00:03:26;;;;;;;6.90;5.27;;;;;;;10.02;100.00;98266.16;6822233;26;20289;-58
2024/04/14 00:06:28;;;;;;;9.57;5.03;;;;;;;9.97;100.00;98258.84;6823489;26;20289;-56
2024/04/14 00:09:31;;;;;;;7.20;4.93;;;;;;;9.98;100.00;98260.47;6818319;25;20306;-58
2024/04/14 00:12:33;;;;;;;5.60;5.03;;;;;;;10.07;100.00;98260.97;6827606;26;20312;-57
2024/04/14 00:15:37;;;;;;;5.43;4.70;;;;;;;10.01;100.00;98244.06;6826732;26;20695;-58
2024/04/14 00:18:40;;;;;;;6.43;4.83;;;;;;;9.99;100.00;98246.13;6834270;26;20312;-57
2024/04/14 00:21:43;;;;;;;7.03;5.00;;;;;;;9.90;100.00;98244.81;6824187;26;20244;-58
2024/04/14 00:24:47;;;;;;;6.20;5.33;;;;;;;9.82;100.00;98237.94;6832037;26;20311;-56
2024/04/14 00:27:49;;;;;;;6.13;4.77;;;;;;;9.82;100.00;98235.28;6845990;26;20725;-56
2024/04/14 00:30:52;;;;;;;8.33;5.20;;;;;;;9.77;100.00;98229.00;6815450;26;20346;-57
2024/04/14 00:33:54;;;;;;;6.23;5.10;;;;;;;9.75;100.00;98231.06;6824369;26;20237;-57
2024/04/14 00:36:57;;;;;;;6.13;5.50;;;;;;;9.72;100.00;98224.34;6835374;26;20244;-56
2024/04/14 00:40:00;;;;;;;6.13;5.53;;;;;;;9.73;100.00;98220.63;6830372;26;20733;-58
2024/04/14 00:43:02;;;;;;;5.90;5.30;;;;;;;9.67;100.00;98229.53;6828353;26;20236;-58
2024/04/14 00:46:05;;;;;;;4.77;4.37;;;;;;;9.65;100.00;98223.59;6835718;26;20278;-58
2024/04/14 00:49:08;;;;;;;5.30;4.70;;;;;;;9.57;100.00;98230.03;6835860;25;20247;-57
2024/04/14 00:52:11;;;;;;;7.40;5.30;;;;;;;9.56;100.00;98227.59;6844279;26;20232;-57
2024/04/14 00:55:14;;;;;;;7.30;5.17;;;;;;;9.54;100.00;98219.84;6838973;26;20235;-58
2024/04/14 00:58:17;;;;;;;6.47;5.87;;;;;;;9.42;100.00;98207.50;6822725;26;20234;-56
2024/04/14 01:01:20;;;;;;;8.70;5.53;;;;;;;9.45;100.00;98225.66;6835235;26;21255;-58
2024/04/14 01:04:23;;;;;;;6.90;5.63;;;;;;;9.41;100.00;98204.03;6827317;26;20269;-57
2024/04/14 01:07:26;;;;;;;5.83;5.10;;;;;;;9.43;100.00;98212.59;6848705;26;20255;-57
2024/04/14 01:10:29;;;;;;;5.70;5.20;;;;;;;8.66;100.00;98086.44;6756276;20;20263;-92
2024/04/14 01:13:32;;;;;;;6.00;5.10;;;;;;;9.45;100.00;98196.41;6738813;21;20267;-57
2024/04/14 01:16:38;;;;;;;7.17;5.70;;;;;;;9.41;100.00;98188.09;6720852;26;20269;-60
2024/04/14 01:19:41;;;;;;;8.73;6.00;;;;;;;9.46;100.00;98198.88;6670496;26;20342;-55
2024/04/14 01:22:43;;;;;;;7.23;6.27;;;;;;;9.43;100.00;98186.00;6706298;26;20304;-56
2024/04/14 01:25:46;;;;;;;6.23;5.63;;;;;;;9.41;100.00;98185.44;6715213;26;20240;-59
2024/04/14 01:28:48;;;;;;;7.13;6.50;;;;;;;9.32;100.00;98180.63;6725475;26;21126;-57
2024/04/14 01:31:51;;;;;;;8.27;6.70;;;;;;;9.32;100.00;98170.00;6719379;26;20597;-60
2024/04/14 01:34:53;;;;;;;7.50;6.23;;;;;;;9.32;100.00;98165.47;6712725;26;20302;-59
2024/04/14 01:37:56;;;;;;;7.73;6.00;;;;;;;9.26;100.00;98158.38;6730529;26;20240;-58
2024/04/14 01:41:13;;;;;;;8.33;6.53;;;;;;;9.30;100.00;98157.69;6702520;26;20738;-59
2024/04/14 01:44:16;;;;;;;6.57;5.57;;;;;;;9.25;100.00;98165.53;6716364;26;20338;-58
2024/04/14 01:47:18;;;;;;;7.47;6.10;;;;;;;9.24;100.00;98157.78;6705631;26;20241;-58
2024/04/14 01:50:21;;;;;;;6.73;5.70;;;;;;;9.21;100.00;98152.91;6713231;26;20734;-57
2024/04/14 01:53:24;;;;;;;7.40;6.40;;;;;;;9.22;100.00;98163.34;6708192;26;20287;-58
2024/04/14 01:56:27;;;;;;;7.07;6.30;;;;;;;9.16;100.00;98155.41;6746486;26;20229;-56
2024/04/14 01:59:29;;;;;;;6.93;6.33;;;;;;;9.13;100.00;98161.19;6713889;26;20266;-58
2024/04/14 02:02:32;;;;;;;7.20;6.50;;;;;;;9.10;100.00;98158.97;6713310;26;20287;-57
2024/04/14 02:05:34;;;;;;;6.90;6.10;;;;;;;9.14;100.00;98160.16;6712936;26;20319;-56
2024/04/14 02:08:37;;;;;;;7.20;6.60;;;;;;;9.11;100.00;98161.38;6720641;26;20653;-58
2024/04/14 02:11:39;;;;;;;9.57;7.30;;;;;;;9.15;100.00;98165.22;6712825;26;20828;-57
2024/04/14 02:14:42;;;;;;;8.97;6.53;;;;;;;9.17;100.00;98162.38;6716428;26;20241;-59
2024/04/14 02:17:44;;;;;;;8.57;6.57;;;;;;;9.17;100.00;98163.19;6732775;26;20291;-58
2024/04/14 02:20:47;;;;;;;8.57;6.10;;;;;;;9.14;100.00;98162.81;6671662;26;20235;-57
2024/04/14 02:23:50;;;;;;;7.10;6.17;;;;;;;9.17;100.00;98162.38;6717595;26;20760;-56
2024/04/14 02:26:53;;;;;;;8.87;6.43;;;;;;;9.29;100.00;98157.94;6706672;26;20231;-59
2024/04/14 02:29:55;;;;;;;6.83;6.13;;;;;;;9.23;100.00;98154.31;6705053;26;20240;-59
2024/04/14 02:32:58;;;;;;;6.40;5.80;;;;;;;9.17;100.00;98157.06;6704782;26;20683;-57
2024/04/14 02:36:01;;;;;;;8.00;5.97;;;;;;;9.17;100.00;98155.22;6713993;26;20843;-57
2024/04/14 02:39:04;;;;;;;6.70;6.07;;;;;;;9.20;100.00;98151.28;6707032;26;20304;-58
2024/04/14 02:42:07;;;;;;;6.70;5.40;;;;;;;9.21;100.00;98143.09;6721410;26;20755;-56
2024/04/14 02:45:10;;;;;;;6.20;5.07;;;;;;;9.13;100.00;98142.59;6716372;26;20289;-56
2024/04/14 02:48:12;;;;;;;7.20;5.43;;;;;;;9.16;100.00;98144.78;6708042;26;20240;-59
2024/04/14 02:51:15;;;;;;;5.43;4.93;;;;;;;9.11;100.00;98131.34;6717995;26;20285;-58
2024/04/14 02:54:17;;;;;;;6.13;5.53;;;;;;;9.12;100.00;98133.78;6704750;26;20238;-57
2024/04/14 02:57:20;;;;;;;15.70;5.37;;;;;;;9.17;100.00;98141.09;6705171;26;20238;-59
2024/04/14 03:00:23;;;;;;;6.60;4.77;;;;;;;9.12;100.00;98128.47;6711403;26;20238;-58
2024/04/14 03:03:25;;;;;;;5.50;5.00;;;;;;;9.15;100.00;98122.69;6709011;26;20289;-57
2024/04/14 03:06:28;;;;;;;8.33;4.90;;;;;;;9.16;100.00;98132.31;6705451;26;20364;-59
2024/04/14 03:09:30;;;;;;;5.10;4.60;;;;;;;9.14;100.00;98133.56;6719077;26;20289;-59
2024/04/14 03:12:33;;;;;;;6.03;4.67;;;;;;;9.20;100.00;98124.69;6720358;26;20276;-57
2024/04/14 03:15:37;;;;;;;4.53;4.13;;;;;;;9.14;100.00;98120.28;6717765;26;20298;-57
2024/04/14 03:18:39;;;;;;;7.93;4.10;;;;;;;9.24;100.00;98104.63;6714626;26;20953;-58
2024/04/14 03:21:42;;;;;;;4.50;4.00;;;;;;;9.17;100.00;98120.66;6704316;26;20228;-58
2024/04/14 03:24:45;;;;;;;4.23;3.73;;;;;;;9.13;100.00;98119.47;6712702;26;20240;-58
2024/04/14 03:27:48;;;;;;;4.73;3.77;;;;;;;9.03;100.00;98119.97;6708337;26;20238;-59
2024/04/14 03:30:51;;;;;;;4.33;3.93;;;;;;;8.98;100.00;98111.84;6714741;26;20253;-56
2024/04/14 03:33:54;;;;;;;4.13;3.73;;;;;;;8.97;100.00;98115.56;6718713;26;20229;-58
2024/04/14 03:36:59;;;;;;;3.33;2.93;;;;;;;9.12;100.00;98111.72;6710625;26;20241;-57
2024/04/14 03:40:05;;;;;;;3.60;3.30;;;;;;;8.98;100.00;98098.56;6716228;26;20237;-60
2024/04/14 03:43:08;;;;;;;3.47;3.17;;;;;;;8.92;100.00;98101.31;6704344;26;20236;-58
2024/04/14 03:46:10;;;;;;;5.13;3.00;;;;;;;9.17;100.00;98106.56;6734380;26;20267;-58
2024/04/14 03:49:13;;;;;;;4.20;2.90;;;;;;;8.92;100.00;98104.78;6718580;26;20311;-59
2024/04/14 03:52:15;;;;;;;3.80;3.47;;;;;;;8.82;100.00;98104.47;6711468;26;20285;-58
2024/04/14 03:55:18;;;;;;;3.63;3.33;;;;;;;8.74;100.00;98116.19;6711714;26;20285;-59
2024/04/14 03:58:21;;;;;;;3.50;3.10;;;;;;;8.68;100.00;98114.41;6701696;26;20282;-57
2024/04/14 04:01:23;;;;;;;3.40;3.10;;;;;;;8.76;100.00;98118.59;6708319;26;20282;-58
2024/04/14 04:04:26;;;;;;;5.83;4.00;;;;;;;8.68;100.00;98113.59;6703950;26;20289;-57
2024/04/14 04:07:28;;;;;;;6.60;3.73;;;;;;;8.65;100.00;98106.06;6704518;26;20276;-57
2024/04/14 04:10:31;;;;;;;3.50;3.20;;;;;;;8.80;100.00;98109.19;6709160;26;20282;-57
2024/04/14 04:13:34;;;;;;;3.57;3.27;;;;;;;8.77;100.00;98106.97;6717589;26;20247;-59
2024/04/14 04:16:36;;;;;;;4.17;3.00;;;;;;;8.87;100.00;98111.78;6705671;26;20238;-59
2024/04/14 04:19:39;;;;;;;4.10;3.43;;;;;;;8.69;100.00;98108.06;6724428;26;20288;-59
2024/04/14 04:22:41;;;;;;;3.70;3.00;;;;;;;8.88;100.00;98106.25;6720207;26;20283;-57
2024/04/14 04:25:44;;;;;;;3.67;3.20;;;;;;;8.79;100.00;98100.41;6707731;26;20280;-58
2024/04/14 04:28:46;;;;;;;3.50;3.20;;;;;;;8.76;100.00;98107.97;6720590;26;20287;-58
2024/04/14 04:31:49;;;;;;;5.40;3.73;;;;;;;8.74;100.00;98096.78;6728629;26;20336;-56
2024/04/14 04:34:52;;;;;;;4.23;3.10;;;;;;;8.92;100.00;98096.00;6701359;26;20344;-55
2024/04/14 04:37:55;;;;;;;4.47;3.10;;;;;;;8.74;100.00;98094.94;6708665;26;20292;-57
2024/04/14 04:40:58;;;;;;;3.97;3.00;;;;;;;8.69;100.00;98093.97;6737069;26;20311;-59
2024/04/14 04:44:03;;;;;;;3.47;3.17;;;;;;;8.78;100.00;98088.16;6732537;26;20638;-55
2024/04/14 04:47:06;;;;;;;3.70;3.40;;;;;;;8.81;100.00;98100.16;6710178;26;20241;-58
2024/04/14 04:50:09;;;;;;;3.17;2.87;;;;;;;8.73;100.00;98081.88;6743081;26;20675;-59
2024/04/14 04:53:14;;;;;;;5.43;3.07;;;;;;;8.80;100.00;98101.22;6706678;26;20728;-57
2024/04/14 04:56:16;;;;;;;3.40;3.10;;;;;;;8.82;100.00;98093.84;6704111;26;20281;-58
2024/04/14 04:59:22;;;;;;;3.37;3.07;;;;;;;8.84;100.00;98099.75;6713314;26;20275;-59
2024/04/14 05:02:24;;;;;;;3.10;2.90;;;;;;;8.92;100.00;98096.81;6705126;26;20289;-58
2024/04/14 05:05:27;;;;;;;4.87;3.90;;;;;;;8.94;100.00;98088.59;6676210;26;20258;-58
2024/04/14 05:08:29;;;;;;;6.67;4.40;;;;;;;8.95;100.00;98101.66;6707284;26;20299;-58
2024/04/14 05:11:32;;;;;;;5.70;4.40;;;;;;;9.12;100.00;98099.25;6722821;26;20287;-57
2024/04/14 05:14:35;;;;;;;4.07;3.77;;;;;;;9.15;100.00;98090.00;6714964;26;20298;-58
2024/04/14 05:17:37;;;;;;;5.47;3.87;;;;;;;9.29;100.00;98088.81;6705656;26;20236;-56
2024/04/14 05:20:40;;;;;;;4.40;3.50;;;;;;;9.30;100.00;98093.91;6716593;26;20303;-57
2024/04/14 05:23:42;;;;;;;3.60;3.30;;;;;;;9.39;100.00;98088.28;6713972;26;20361;-58
2024/04/14 05:26:45;;;;;;;3.80;3.47;;;;;;;9.56;100.00;98091.97;6711013;26;20239;-54
2024/04/14 05:29:47;;;;;;;4.23;3.83;;;;;;;9.73;100.00;98097.44;6705438;26;20295;-58
2024/04/14 05:32:53;;;;;;;4.17;3.50;;;;;;;9.77;100.00;98093.31;6705603;26;20234;-58
2024/04/14 05:35:57;;;;;;;4.70;3.47;;;;;;;9.79;100.00;98092.03;6709163;26;20222;-59
2024/04/14 05:38:59;;;;;;;4.13;3.30;;;;;;;9.91;100.00;98096.59;6727641;26;20242;-57
2024/04/14 05:42:02;;;;;;;4.43;3.00;;;;;;;10.05;100.00;98093.50;6710054;26;20280;-58
2024/04/14 05:45:08;;;;;;;3.40;3.10;;;;;;;10.12;100.00;98095.25;6714096;26;20244;-58
2024/04/14 05:48:11;;;;;;;5.03;3.47;;;;;;;10.16;100.00;98093.75;6733432;26;20297;-58
2024/04/14 05:51:13;;;;;;;3.70;3.40;;;;;;;10.53;100.00;98113.06;6729311;26;20276;-56
2024/04/14 05:54:16;;;;;;;4.30;3.27;;;;;;;10.51;100.00;98104.50;6706138;26;20244;-57
2024/04/14 05:57:19;;;;;;;3.80;2.90;;;;;;;10.82;100.00;98101.47;6709434;26;20250;-56
2024/04/14 06:00:21;;;;;;;4.20;2.90;;;;;;;10.83;100.00;98102.28;6720403;26;20244;-58
2024/04/14 06:03:24;;;;;;;3.30;2.60;;;;;;;10.84;100.00;98109.25;6724693;26;21124;-59
2024/04/14 06:06:26;;;;;;;3.80;2.90;;;;;;;10.98;100.00;98110.59;6719072;26;20291;-57
2024/04/14 06:09:29;;;;;;;3.17;2.60;;;;;;;11.14;100.00;98122.44;6707661;26;20235;-56
2024/04/14 06:12:32;;;;;;;4.13;2.80;;;;;;;11.32;100.00;98116.91;6726055;26;20244;-58
2024/04/14 06:15:34;;;;;;;4.10;2.87;;;;;;;11.23;100.00;98120.19;6716196;26;20323;-58
2024/04/14 06:18:37;;;;;;;2.63;2.27;;;;;;;11.17;100.00;98111.28;6721223;26;20274;-59
2024/04/14 06:21:41;;;;;;;3.43;2.80;;;;;;;11.45;100.00;98126.53;6674660;26;20237;-57
2024/04/14 06:24:43;;;;;;;4.03;2.60;;;;;;;11.35;100.00;98121.81;6726643;26;20239;-57
2024/04/14 06:27:46;;;;;;;4.13;2.47;;;;;;;11.55;100.00;98109.91;6698323;26;20233;-58
2024/04/14 06:30:48;;;;;;;2.60;2.23;;;;;;;11.57;100.00;98113.94;6723175;26;20286;-59
2024/04/14 06:33:51;;;;;;;3.07;2.37;;;;;;;11.75;100.00;98110.31;6706985;26;20283;-59
2024/04/14 06:36:54;;;;;;;4.53;2.40;;;;;;;11.83;100.00;98111.81;6720256;26;20236;-56
2024/04/14 06:39:56;;;;;;;2.53;2.23;;;;;;;11.88;100.00;98106.56;6734025;26;20230;-59
2024/04/14 06:42:59;;;;;;;6.00;2.57;;;;;;;12.08;100.00;98112.28;6715611;26;20235;-57
2024/04/14 06:46:02;;;;;;;2.30;1.97;;;;;;;12.23;100.00;98106.38;6714491;26;20425;-56
2024/04/14 06:49:05;;;;;;;4.33;2.37;;;;;;;12.39;100.00;98115.44;6715842;26;20855;-58
2024/04/14 06:52:07;;;;;;;4.03;2.20;;;;;;;13.06;100.00;98109.25;6716760;26;20237;-58
2024/04/14 06:55:12;;;;;;;3.43;2.30;;;;;;;13.20;100.00;98115.84;6704405;26;20225;-59
2024/04/14 06:58:15;;;;;;;3.73;2.20;;;;;;;13.40;100.00;98116.13;6702908;26;20356;-59
2024/04/14 07:01:17;;;;;;;2.50;2.00;;;;;;;13.58;100.00;98109.63;6699623;26;20291;-57
2024/04/14 07:04:20;;;;;;;2.33;1.97;;;;;;;13.77;100.00;98117.34;6718577;26;20284;-59
2024/04/14 07:07:23;;;;;;;3.10;1.53;;;;;;;15.01;94.24;98099.34;6704040;26;20232;-55
2024/04/14 07:10:25;;;;;;;4.93;1.70;;;;;;;15.31;93.66;98112.13;6711860;26;20300;-57
2024/04/14 07:13:28;;;;;;;1.87;1.37;;;;;;;15.69;89.07;98122.50;6711060;26;20237;-55
2024/04/14 07:16:30;;;;;;;1.83;1.63;;;;;;;16.06;87.01;98110.78;6724944;26;20357;-59
2024/04/14 07:19:33;;;;;;;6.67;1.80;;;;;;;16.42;88.69;98116.19;6704490;26;20271;-58
2024/04/14 07:22:36;;;;;;;2.60;1.40;;;;;;;16.83;77.33;98114.31;6703855;26;20229;-60
2024/04/14 07:25:38;;;;;;;2.73;1.50;;;;;;;17.31;69.89;98120.13;6704787;26;20333;-60
2024/04/14 07:28:41;;;;;;;1.77;1.40;;;;;;;17.62;73.11;98136.97;6681583;26;20329;-57
2024/04/14 07:31:43;;;;;;;1.93;1.40;;;;;;;17.76;71.69;98132.63;6704329;26;20336;-59
2024/04/14 07:34:46;;;;;;;4.67;1.40;;;;;;;18.36;63.71;98132.53;6718460;26;20309;-59
2024/04/14 07:37:48;;;;;;;4.17;1.50;;;;;;;19.04;57.08;98119.00;6714763;26;20239;-57
2024/04/14 07:40:51;;;;;;;8.50;1.60;;;;;;;19.76;51.36;98124.41;6713197;26;20271;-56
2024/04/14 07:43:53;;;;;;;2.17;1.43;;;;;;;20.05;50.63;98116.19;6698936;26;20233;-58
2024/04/14 07:46:56;;;;;;;1.70;1.40;;;;;;;20.28;49.36;98127.19;6725687;26;20228;-57
2024/04/14 07:49:58;;;;;;;5.17;1.77;;;;;;;20.88;48.53;98124.63;6722793;26;20346;-58
2024/04/14 07:53:01;;;;;;;4.03;1.40;;;;;;;21.02;47.59;98117.31;6706455;26;20236;-57
2024/04/14 07:56:04;;;;;;;2.67;1.30;;;;;;;21.04;48.77;98122.47;6694892;26;20237;-56
2024/04/14 07:59:06;;;;;;;3.13;1.43;;;;;;;21.48;44.78;98131.97;6713732;26;20279;-57
2024/04/14 08:02:09;;;;;;;2.07;1.27;;;;;;;21.71;44.35;98113.84;6712307;26;20312;-57
2024/04/14 08:05:11;;;;;;;4.77;1.47;;;;;;;21.84;41.37;98113.81;6753768;26;20286;-57
2024/04/14 08:08:14;;;;;;;5.00;1.37;;;;;;;21.73;43.51;98131.44;6703237;26;20260;-56
2024/04/14 08:11:17;;;;;;;1.63;1.40;;;;;;;21.95;42.57;98127.16;6696872;26;20291;-57
2024/04/14 08:14:19;;;;;;;4.20;1.70;;;;;;;22.05;41.49;98135.06;6713917;26;20280;-57
2024/04/14 08:17:22;;;;;;;3.27;1.57;;;;;;;22.21;40.94;98122.78;6705202;26;20309;-56
2024/04/14 08:20:25;;;;;;;2.87;1.50;;;;;;;22.12;42.73;98136.31;6706374;26;20237;-57
2024/04/14 08:23:28;;;;;;;4.87;1.30;;;;;;;22.18;44.57;98128.84;6685856;26;20296;-56
2024/04/14 08:26:30;;;;;;;5.50;1.53;;;;;;;22.00;47.45;98116.19;6702857;26;20324;-57
2024/04/14 08:29:33;;;;;;;2.37;1.67;;;;;;;22.08;43.53;98129.06;6706008;26;20288;-59
2024/04/14 08:32:35;;;;;;;1.97;1.47;;;;;;;22.23;44.09;98128.72;6708964;26;20240;-57
2024/04/14 08:35:38;;;;;;;3.17;1.73;;;;;;;22.21;46.79;98133.66;6703124;26;20240;-58
2024/04/14 08:38:40;;;;;;;3.33;1.50;;;;;;;22.32;43.88;98134.22;6703797;26;20552;-58
2024/04/14 08:41:44;;;;;;;3.20;1.30;;;;;;;22.27;42.62;98120.78;6708222;26;20241;-57
2024/04/14 08:44:49;;;;;;;3.40;1.50;;;;;;;22.43;43.19;98140.22;6708381;26;20283;-59
2024/04/14 08:47:53;;;;;;;2.10;1.30;;;;;;;22.49;42.88;98130.84;6699887;26;20233;-56
2024/04/14 08:50:58;;;;;;;5.87;1.60;;;;;;;22.66;39.76;98144.56;6707456;26;20295;-59
2024/04/14 08:54:01;;;;;;;4.13;1.60;;;;;;;22.67;39.02;98121.72;6710934;26;20236;-59
2024/04/14 08:57:05;;;;;;;3.23;1.30;;;;;;;22.69;40.73;98133.06;6708753;26;20283;-56
2024/04/14 09:00:18;;;;;;;4.03;1.23;;;;;;;22.69;41.79;98127.63;6705561;26;20237;-56
2024/04/14 09:03:22;;;;;;;5.30;1.60;;;;;;;22.95;39.48;98124.28;6707872;26;20249;-55
2024/04/14 09:06:27;;;;;;;2.28;1.50;;;;;;;23.06;36.22;98126.44;6730714;26;20570;-54
2024/04/14 09:09:33;;;;;;;1.30;1.20;;;;;;;23.29;36.53;98116.28;6710538;26;20280;-54
2024/04/14 09:12:35;;;;;;;2.17;1.60;;;;;;;23.33;39.71;98128.13;6709264;26;20241;-55
2024/04/14 09:15:40;;;;;;;3.27;1.60;;;;;;;23.46;36.67;98117.47;6709238;26;20237;-55
2024/04/14 09:18:44;;;;;;;2.07;1.60;;;;;;;23.54;37.54;98116.69;6711960;26;20682;-55
2024/04/14 09:21:47;;;;;;;3.15;1.40;;;;;;;23.62;37.79;98105.84;6714589;26;20236;-56
2024/04/14 09:24:50;;;;;;;3.22;1.58;;;;;;;23.75;35.73;98103.34;6712975;26;20280;-56
2024/04/14 09:28:03;;;;;;;5.32;1.30;;;;;;;23.65;37.97;98107.97;6707220;26;20347;-56
2024/04/14 09:31:06;;;;;;;2.65;1.55;;;;;;;23.82;35.44;98109.91;6707986;26;20979;-53
2024/04/14 09:34:09;;;;;;;4.35;1.70;;;;;;;23.73;39.92;98098.19;6712597;26;20289;-55
2024/04/14 09:37:12;;;;;;;3.17;1.10;;;;;;;23.60;38.30;98107.28;6714404;26;20252;-54
2024/04/14 09:40:17;;;;;;;4.97;1.33;;;;;;;23.86;35.13;98099.19;6710060;26;20279;-56
2024/04/14 09:43:22;;;;;;;0.93;0.90;;;;;;;23.82;35.37;98088.13;6698038;26;20241;-55
2024/04/14 09:46:25;;;;;;;2.72;1.40;;;;;;;23.84;36.88;98096.81;6705227;26;20349;-54
2024/04/14 09:49:31;;;;;;;2.50;1.55;;;;;;;23.81;39.23;98086.53;6725074;26;20244;-55
2024/04/14 09:52:35;;;;;;;4.53;1.48;;;;;;;23.79;38.56;98088.78;6722844;26;20864;-54
2024/04/14 09:55:38;;;;;;;5.25;1.65;;;;;;;24.01;37.47;98087.84;6731240;26;20241;-53
2024/04/14 09:58:42;;;;;;;3.33;1.35;;;;;;;23.82;36.96;98082.69;6705162;26;20286;-53
2024/04/14 10:01:47;;;;;;;3.90;1.30;;;;;;;23.79;38.44;98082.53;6705565;26;20233;-55
2024/04/14 10:04:53;;;;;;;2.20;1.27;;;;;;;23.78;38.90;98083.66;6711191;26;20225;-54
2024/04/14 10:07:55;;;;;;;2.25;1.50;;;;;;;24.07;35.91;98094.72;6704763;26;20245;-55
2024/04/14 10:11:00;;;;;;;4.25;1.10;;;;;;;23.91;34.68;98083.50;6704993;26;20237;-53
2024/04/14 10:14:03;;;;;;;2.45;1.40;;;;;;;23.90;35.77;98079.19;6710985;26;20249;-55
2024/04/14 10:17:06;;;;;;;1.92;1.25;;;;;;;23.87;35.91;98081.75;6712734;26;20725;-55
2024/04/14 10:20:12;;;;;;;2.90;1.33;;;;;;;23.87;38.67;98062.69;6705071;26;20228;-55
2024/04/14 10:23:17;;;;;;;2.13;1.40;;;;;;;23.86;37.91;98061.91;6713881;26;20232;-57
2024/04/14 10:26:20;;;;;;;3.38;1.63;;;;;;;24.10;35.98;98061.44;6720049;26;20386;-56
2024/04/14 10:29:23;;;;;;;3.45;1.33;;;;;;;24.14;37.39;98061.59;6716216;26;20730;-54
2024/04/14 10:32:26;;;;;;;4.15;1.27;;;;;;;24.22;35.64;98052.59;6728424;26;20352;-53
2024/04/14 10:35:29;;;;;;;5.18;1.75;;;;;;;24.10;37.05;98055.97;6726303;26;20240;-53
2024/04/14 10:38:33;;;;;;;2.40;1.00;;;;;;;24.04;36.41;98059.16;6695591;26;20240;-55
2024/04/14 10:41:36;;;;;;;2.38;1.27;;;;;;;24.12;36.92;98047.50;6716762;26;20336;-53
2024/04/14 10:44:43;;;;;;;1.65;1.20;;;;;;;24.15;36.48;98061.25;6710345;26;20264;-53
2024/04/14 10:47:50;;;;;;;2.05;0.90;;;;;;;24.37;35.43;98051.34;6704973;26;20300;-54
2024/04/14 10:50:52;;;;;;;2.25;1.02;;;;;;;24.38;35.29;98056.47;6723532;26;20337;-54
2024/04/14 10:53:56;;;;;;;2.25;1.10;;;;;;;24.34;35.30;98054.69;6721430;26;20793;-55
2024/04/14 10:56:59;;;;;;;4.63;1.30;;;;;;;24.18;35.08;98036.09;6702497;26;20282;-55
2024/04/14 11:00:04;;;;;;;2.20;1.52;;;;;;;24.20;35.50;98044.75;6716873;26;20291;-56
2024/04/14 11:03:08;;;;;;;3.97;1.40;;;;;;;24.39;35.71;98047.19;6715302;26;20292;-56
2024/04/14 11:06:11;;;;;;;3.08;1.30;;;;;;;24.62;35.68;98045.03;6716523;26;20253;-53
2024/04/14 11:09:14;;;;;;;1.70;1.13;;;;;;;24.81;35.65;98041.94;6708898;26;20636;-55
2024/04/14 11:12:17;;;;;;;1.85;1.00;;;;;;;24.71;36.55;98023.22;6712084;26;20283;-55
2024/04/14 11:15:20;;;;;;;3.15;1.17;;;;;;;24.89;34.18;98027.47;6700067;26;21093;-53
2024/04/14 11:18:28;;;;;;;1.70;1.00;;;;;;;24.88;35.17;98022.38;6719747;26;20323;-54
2024/04/14 11:21:30;;;;;;;2.55;1.25;;;;;;;24.77;36.91;98035.53;6705932;26;20232;-58
2024/04/14 11:24:33;;;;;;;1.92;1.00;;;;;;;24.60;35.29;98024.69;6704596;26;20356;-53
2024/04/14 11:27:35;;;;;;;1.83;1.27;;;;;;;24.73;33.20;98018.25;6739948;26;20726;-54
2024/04/14 11:30:38;;;;;;;1.73;1.05;;;;;;;24.68;37.35;98019.22;6701209;26;20283;-55
2024/04/14 11:33:42;;;;;;;1.73;0.93;;;;;;;24.70;35.18;97991.66;6710479;26;20233;-54
2024/04/14 11:36:47;;;;;;;2.50;1.27;;;;;;;24.83;32.69;98001.53;6711645;26;20288;-55
2024/04/14 11:39:50;;;;;;;2.90;1.00;;;;;;;24.80;34.58;97996.72;6704502;26;20276;-55
2024/04/14 11:42:53;;;;;;;2.85;1.17;;;;;;;24.95;33.60;97992.66;6703696;26;20233;-54
2024/04/14 11:45:56;;;;;;;3.10;1.20;;;;;;;24.88;36.31;97984.22;6717570;26;20670;-56
2024/04/14 11:48:58;;;;;;;2.78;1.33;;;;;;;25.14;33.51;97984.88;6688623;26;20859;-55
2024/04/14 11:52:02;;;;;;;2.65;1.30;;;;;;;25.01;35.17;97980.44;6707029;26;20249;-56
2024/04/14 11:55:09;;;;;;;2.50;1.23;;;;;;;25.05;33.58;97980.59;6720182;26;20275;-54
2024/04/14 11:58:13;;;;;;;1.73;1.08;;;;;;;25.04;34.57;97992.63;6717514;26;20220;-54
2024/04/14 12:01:17;;;;;;;1.65;1.00;;;;;;;25.08;35.28;97986.22;6703564;26;20237;-54
2024/04/14 12:04:20;;;;;;;1.90;1.27;;;;;;;25.24;34.31;97985.63;6698990;26;20283;-53
2024/04/14 12:07:22;;;;;;;2.15;1.48;;;;;;;25.10;33.83;97964.88;6710323;26;20237;-54
2024/04/14 12:10:25;;;;;;;2.22;1.25;;;;;;;25.11;35.26;97963.72;6712926;26;20240;-55
2024/04/14 12:13:29;;;;;;;1.42;1.10;;;;;;;25.17;34.97;97967.06;6708482;26;20826;-56
2024/04/14 12:16:34;;;;;;;2.35;1.15;;;;;;;25.38;34.60;97964.38;6702181;26;20241;-56
2024/04/14 12:19:36;;;;;;;1.63;1.05;;;;;;;25.44;35.78;97968.50;6713652;26;20241;-55
2024/04/14 12:22:39;;;;;;;1.35;1.25;;;;;;;25.48;37.56;97967.50;6702689;26;20284;-54
2024/04/14 12:25:42;;;;;;;2.15;1.20;;;;;;;25.41;33.48;97955.50;6723918;26;20224;-56
2024/04/14 12:28:44;;;;;;;1.98;1.10;;;;;;;25.34;34.74;97969.69;6709891;26;20300;-56
2024/04/14 12:31:48;;;;;;;4.95;1.40;;;;;;;25.28;35.12;97956.59;6717685;26;20236;-53
2024/04/14 12:34:51;;;;;;;1.65;1.10;;;;;;;25.12;33.86;97964.53;6763751;26;20345;-55
2024/04/14 12:37:54;;;;;;;2.53;1.27;;;;;;;25.17;34.61;97950.69;6718985;26;20237;-55
2024/04/14 12:40:56;;;;;;;2.08;1.27;;;;;;;24.86;34.75;97940.91;6688746;26;20249;-53
2024/04/14 12:43:59;;;;;;;2.08;1.15;;;;;;;24.83;36.58;97955.22;6723581;26;20276;-53
2024/04/14 12:47:02;;;;;;;1.27;1.17;;;;;;;24.61;35.75;97928.22;6715710;26;20237;-55
2024/04/14 12:50:05;;;;;;;3.60;1.17;;;;;;;24.68;34.08;97933.97;6687447;26;20253;-55
2024/04/14 12:53:08;;;;;;;1.70;1.20;;;;;;;24.63;35.19;97931.41;6706634;26;20579;-55
2024/04/14 12:56:11;;;;;;;2.25;1.30;;;;;;;24.53;36.14;97923.59;6704892;26;20287;-56
2024/04/14 12:59:14;;;;;;;3.60;1.23;;;;;;;24.58;36.42;97912.50;6706562;26;20278;-54
2024/04/14 13:02:16;;;;;;;2.20;1.08;;;;;;;24.83;35.36;97913.53;6727538;26;20289;-53
2024/04/14 13:05:19;;;;;;;2.97;1.23;;;;;;;25.05;34.00;97909.72;6719068;26;21256;-55
2024/04/14 13:08:22;;;;;;;2.72;1.20;;;;;;;25.01;35.77;97903.31;6706425;26;20245;-55
2024/04/14 13:11:24;;;;;;;1.40;1.30;;;;;;;24.82;35.54;97881.94;6740712;26;20307;-54
2024/04/14 13:14:27;;;;;;;2.15;1.20;;;;;;;24.90;35.14;97892.78;6732678;26;20357;-54
2024/04/14 13:17:29;;;;;;;1.73;1.10;;;;;;;24.96;35.83;97899.66;6724300;26;20308;-54
2024/04/14 13:20:32;;;;;;;1.48;1.27;;;;;;;24.99;34.48;97897.41;6715402;26;20237;-53
2024/04/14 13:23:35;;;;;;;2.13;1.10;;;;;;;24.98;36.95;97890.38;6706456;26;20586;-54
2024/04/14 13:26:42;;;;;;;2.67;1.27;;;;;;;24.95;35.98;97875.44;6722496;26;20283;-54
2024/04/14 13:29:45;;;;;;;1.70;1.17;;;;;;;24.88;35.35;97867.03;6718509;26;20322;-54
2024/04/14 13:32:47;;;;;;;1.20;1.10;;;;;;;24.79;37.56;97882.63;6709156;26;20316;-55
2024/04/14 13:35:50;;;;;;;1.67;1.30;;;;;;;25.00;35.20;97872.53;6716488;26;20283;-56
2024/04/14 13:38:52;;;;;;;2.08;1.23;;;;;;;25.24;34.32;97855.56;6713691;26;20295;-57
2024/04/14 13:41:55;;;;;;;1.27;1.00;;;;;;;25.21;34.38;97845.28;6727550;26;20225;-55
2024/04/14 13:44:57;;;;;;;2.85;1.30;;;;;;;25.34;32.02;97844.22;6704678;26;20239;-54
2024/04/14 13:48:00;;;;;;;1.23;1.00;;;;;;;25.30;32.56;97850.69;6711268;26;20799;-54
2024/04/14 13:51:04;;;;;;;2.35;1.23;;;;;;;25.51;34.34;97848.72;6707484;26;20283;-54
2024/04/14 13:54:06;;;;;;;2.35;1.20;;;;;;;25.34;33.88;97844.22;6703776;26;20237;-55
2024/04/14 13:57:09;;;;;;;3.05;1.25;;;;;;;25.30;31.81;97846.03;6718650;26;20284;-56
2024/04/14 14:00:12;;;;;;;1.67;1.00;;;;;;;25.35;33.66;97839.56;6712937;26;20291;-54
2024/04/14 14:03:15;;;;;;;2.58;1.10;;;;;;;25.48;30.45;97835.78;6712356;26;20340;-56
2024/04/14 14:06:18;;;;;;;1.25;1.10;;;;;;;25.37;31.30;97821.75;6737720;26;20240;-56
2024/04/14 14:09:22;;;;;;;2.10;1.02;;;;;;;25.29;32.87;97827.28;6726230;26;20224;-56
2024/04/14 14:12:25;;;;;;;2.00;1.20;;;;;;;25.33;30.65;97823.56;6713633;26;20244;-54
2024/04/14 14:15:28;;;;;;;2.63;1.27;;;;;;;25.13;30.08;97822.44;6726600;26;20283;-55
2024/04/14 14:18:30;;;;;;;1.85;1.20;;;;;;;24.83;32.74;97831.78;6697743;26;20244;-55